^^
Station Historical Data
Daily Summary for March 15, 2019 Units:  Both    English   Metric
« Previous Day
Next Day »
Daily Weekly Monthly Yearly Custom
  High: Low: Average:
Temperature: 32.9 °F /  0.5 °C 16.2 °F /  -8.8 °C 25.2 °F /  -3.8 °C
Dew Point: 26.9 °F /  -2.8 °C 13.5 °F /  -10.3 °C 21.3 °F /  -5.9 °C
Humidity: 91% 76% 85%
Wind Speed: 15.0mph /  24.1km/h - 6.4mph /  10.3km/h
Wind Gust: 20.0mph /  32.2km/h - -
Wind- - WSW
Pressure: 30.25 in /  1024.3 hPa 30.11 in /  1019.5 hPa -
Precipitation: 0.00 in /  0 mm    
Historical Graphs
 
 
Tabular Data for March 15, 2019
Time Temperature Dew Point Pressure Wind Wind Speed Wind Gust Humidity Rainfall Rate (Hourly) solar Conditions
00:04 23.3 °F /  -4.8 °C 19.2 °F /  -7.1 °C 30.12in /  1019.9hPa West 5.0mph /  8km/h 9.0mph /  14.5km/h 84% 0.00in /  0mm 0.00 W/m2
00:09 22.7 °F /  -5.2 °C 18.6 °F /  -7.4 °C 30.12in /  1019.9hPa WNW 6.0mph /  9.7km/h 9.0mph /  14.5km/h 84% 0.00in /  0mm 0.00 W/m2
00:14 22.2 °F /  -5.4 °C 18.1 °F /  -7.7 °C 30.12in /  1019.9hPa West 5.0mph /  8km/h 7.0mph /  11.3km/h 84% 0.00in /  0mm 0.00 W/m2
00:19 21.8 °F /  -5.7 °C 17.7 °F /  -7.9 °C 30.12in /  1019.9hPa West 4.0mph /  6.4km/h 6.0mph /  9.7km/h 84% 0.00in /  0mm 0.00 W/m2
00:24 21.4 °F /  -5.9 °C 17.6 °F /  -8 °C 30.12in /  1019.9hPa WNW 4.0mph /  6.4km/h 6.0mph /  9.7km/h 85% 0.00in /  0mm 0.00 W/m2
00:29 21.2 °F /  -6 °C 17.4 °F /  -8.1 °C 30.12in /  1019.9hPa West 5.0mph /  8km/h 8.0mph /  12.9km/h 85% 0.00in /  0mm 0.00 W/m2
00:34 21.3 °F /  -5.9 °C 17.8 °F /  -7.9 °C 30.12in /  1019.9hPa West 4.0mph /  6.4km/h 8.0mph /  12.9km/h 86% 0.00in /  0mm 0.00 W/m2
00:39 21.2 °F /  -6 °C 17.4 °F /  -8.1 °C 30.12in /  1019.9hPa WNW 6.0mph /  9.7km/h 7.0mph /  11.3km/h 85% 0.00in /  0mm 0.00 W/m2
00:44 21.1 °F /  -6.1 °C 17.3 °F /  -8.2 °C 30.12in /  1019.9hPa West 6.0mph /  9.7km/h 8.0mph /  12.9km/h 85% 0.00in /  0mm 0.00 W/m2
00:49 20.8 °F /  -6.2 °C 17.0 °F /  -8.3 °C 30.12in /  1019.9hPa West 5.0mph /  8km/h 8.0mph /  12.9km/h 85% 0.00in /  0mm 0.00 W/m2
00:54 21.2 °F /  -6 °C 17.7 °F /  -7.9 °C 30.12in /  1019.9hPa West 6.0mph /  9.7km/h 8.0mph /  12.9km/h 86% 0.00in /  0mm 0.00 W/m2
00:59 22.0 °F /  -5.6 °C 18.5 °F /  -7.5 °C 30.12in /  1019.9hPa WNW 8.0mph /  12.9km/h 11.0mph /  17.7km/h 86% 0.00in /  0mm 0.00 W/m2
01:04 22.4 °F /  -5.3 °C 18.6 °F /  -7.4 °C 30.11in /  1019.5hPa WNW 9.0mph /  14.5km/h 12.0mph /  19.3km/h 85% 0.00in /  0mm 0.00 W/m2
01:09 22.9 °F /  -5.1 °C 19.1 °F /  -7.2 °C 30.11in /  1019.5hPa West 9.0mph /  14.5km/h 12.0mph /  19.3km/h 85% 0.00in /  0mm 0.00 W/m2
01:14 22.9 °F /  -5.1 °C 19.1 °F /  -7.2 °C 30.11in /  1019.5hPa West 8.0mph /  12.9km/h 13.0mph /  20.9km/h 85% 0.00in /  0mm 0.00 W/m2
01:19 22.3 °F /  -5.4 °C 18.2 °F /  -7.7 °C 30.12in /  1019.9hPa West 10.0mph /  16.1km/h 13.0mph /  20.9km/h 84% 0.00in /  0mm 0.00 W/m2
01:24 21.7 °F /  -5.7 °C 17.9 °F /  -7.8 °C 30.11in /  1019.5hPa West 10.0mph /  16.1km/h 11.0mph /  17.7km/h 85% 0.00in /  0mm 0.00 W/m2
01:29 21.8 °F /  -5.7 °C 18.3 °F /  -7.6 °C 30.11in /  1019.5hPa WNW 8.0mph /  12.9km/h 12.0mph /  19.3km/h 86% 0.00in /  0mm 0.00 W/m2
01:34 21.6 °F /  -5.8 °C 18.1 °F /  -7.7 °C 30.11in /  1019.5hPa WNW 9.0mph /  14.5km/h 12.0mph /  19.3km/h 86% 0.00in /  0mm 0.00 W/m2
01:39 21.8 °F /  -5.7 °C 18.3 °F /  -7.6 °C 30.11in /  1019.5hPa WNW 11.0mph /  17.7km/h 13.0mph /  20.9km/h 86% 0.00in /  0mm 0.00 W/m2
01:44 22.2 °F /  -5.4 °C 18.7 °F /  -7.4 °C 30.11in /  1019.5hPa West 8.0mph /  12.9km/h 13.0mph /  20.9km/h 86% 0.00in /  0mm 0.00 W/m2
01:49 21.9 °F /  -5.6 °C 18.4 °F /  -7.6 °C 30.11in /  1019.5hPa West 10.0mph /  16.1km/h 13.0mph /  20.9km/h 86% 0.00in /  0mm 0.00 W/m2
01:54 21.8 °F /  -5.7 °C 18.5 °F /  -7.5 °C 30.11in /  1019.5hPa WNW 8.0mph /  12.9km/h 12.0mph /  19.3km/h 87% 0.00in /  0mm 0.00 W/m2
01:59 21.7 °F /  -5.7 °C 18.2 °F /  -7.7 °C 30.11in /  1019.5hPa WNW 9.0mph /  14.5km/h 12.0mph /  19.3km/h 86% 0.00in /  0mm 0.00 W/m2
02:04 21.9 °F /  -5.6 °C 18.6 °F /  -7.4 °C 30.11in /  1019.5hPa West 8.0mph /  12.9km/h 13.0mph /  20.9km/h 87% 0.00in /  0mm 0.00 W/m2
02:09 21.9 °F /  -5.6 °C 18.6 °F /  -7.4 °C 30.11in /  1019.5hPa West 13.0mph /  20.9km/h 13.0mph /  20.9km/h 87% 0.00in /  0mm 0.00 W/m2
02:14 22.0 °F /  -5.6 °C 18.7 °F /  -7.4 °C 30.12in /  1019.9hPa West 9.0mph /  14.5km/h 14.0mph /  22.5km/h 87% 0.00in /  0mm 0.00 W/m2
02:19 22.0 °F /  -5.6 °C 18.7 °F /  -7.4 °C 30.12in /  1019.9hPa West 14.0mph /  22.5km/h 15.0mph /  24.1km/h 87% 0.00in /  0mm 0.00 W/m2
02:24 22.0 °F /  -5.6 °C 18.7 °F /  -7.4 °C 30.12in /  1019.9hPa West 9.0mph /  14.5km/h 15.0mph /  24.1km/h 87% 0.00in /  0mm 0.00 W/m2
02:29 22.0 °F /  -5.6 °C 18.7 °F /  -7.4 °C 30.12in /  1019.9hPa West 9.0mph /  14.5km/h 14.0mph /  22.5km/h 87% 0.00in /  0mm 0.00 W/m2
02:34 22.1 °F /  -5.5 °C 18.8 °F /  -7.3 °C 30.12in /  1019.9hPa West 9.0mph /  14.5km/h 13.0mph /  20.9km/h 87% 0.00in /  0mm 0.00 W/m2
02:39 22.9 °F /  -5.1 °C 19.9 °F /  -6.7 °C 30.12in /  1019.9hPa WNW 14.0mph /  22.5km/h 16.0mph /  25.7km/h 88% 0.00in /  0mm 0.00 W/m2
02:44 24.0 °F /  -4.4 °C 21.0 °F /  -6.1 °C 30.12in /  1019.9hPa West 12.0mph /  19.3km/h 18.0mph /  29km/h 88% 0.00in /  0mm 0.00 W/m2
02:49 24.7 °F /  -4.1 °C 21.7 °F /  -5.7 °C 30.12in /  1019.9hPa West 14.0mph /  22.5km/h 20.0mph /  32.2km/h 88% 0.00in /  0mm 0.00 W/m2
02:54 24.9 °F /  -3.9 °C 21.6 °F /  -5.8 °C 30.12in /  1019.9hPa WNW 14.0mph /  22.5km/h 20.0mph /  32.2km/h 87% 0.00in /  0mm 0.00 W/m2
02:59 24.9 °F /  -3.9 °C 21.6 °F /  -5.8 °C 30.13in /  1020.2hPa WNW 13.0mph /  20.9km/h 18.0mph /  29km/h 87% 0.00in /  0mm 0.00 W/m2
03:04 24.7 °F /  -4.1 °C 21.4 °F /  -5.9 °C 30.13in /  1020.2hPa WNW 12.0mph /  19.3km/h 17.0mph /  27.4km/h 87% 0.00in /  0mm 0.00 W/m2
03:09 24.4 °F /  -4.2 °C 21.1 °F /  -6.1 °C 30.13in /  1020.2hPa WNW 8.0mph /  12.9km/h 17.0mph /  27.4km/h 87% 0.00in /  0mm 0.00 W/m2
03:14 23.9 °F /  -4.5 °C 20.6 °F /  -6.3 °C 30.13in /  1020.2hPa NW 7.0mph /  11.3km/h 17.0mph /  27.4km/h 87% 0.00in /  0mm 0.00 W/m2
03:19 23.6 °F /  -4.7 °C 20.3 °F /  -6.5 °C 30.13in /  1020.2hPa WNW 13.0mph /  20.9km/h 15.0mph /  24.1km/h 87% 0.00in /  0mm 0.00 W/m2
03:24 23.6 °F /  -4.7 °C 20.6 °F /  -6.3 °C 30.14in /  1020.5hPa West 10.0mph /  16.1km/h 19.0mph /  30.6km/h 88% 0.00in /  0mm 0.00 W/m2
03:29 23.5 °F /  -4.7 °C 20.5 °F /  -6.4 °C 30.13in /  1020.2hPa WNW 12.0mph /  19.3km/h 19.0mph /  30.6km/h 88% 0.00in /  0mm 0.00 W/m2
03:34 23.6 °F /  -4.7 °C 20.6 °F /  -6.3 °C 30.13in /  1020.2hPa WNW 14.0mph /  22.5km/h 19.0mph /  30.6km/h 88% 0.00in /  0mm 0.00 W/m2
03:39 23.6 °F /  -4.7 °C 20.6 °F /  -6.3 °C 30.13in /  1020.2hPa WNW 12.0mph /  19.3km/h 19.0mph /  30.6km/h 88% 0.00in /  0mm 0.00 W/m2
03:44 23.7 °F /  -4.6 °C 20.7 °F /  -6.3 °C 30.13in /  1020.2hPa WNW 13.0mph /  20.9km/h 19.0mph /  30.6km/h 88% 0.00in /  0mm 0.00 W/m2
03:49 23.7 °F /  -4.6 °C 20.7 °F /  -6.3 °C 30.13in /  1020.2hPa WNW 8.0mph /  12.9km/h 19.0mph /  30.6km/h 88% 0.00in /  0mm 0.00 W/m2
03:54 23.6 °F /  -4.7 °C 20.6 °F /  -6.3 °C 30.14in /  1020.5hPa NW 10.0mph /  16.1km/h 16.0mph /  25.7km/h 88% 0.00in /  0mm 0.00 W/m2
03:59 23.5 °F /  -4.7 °C 20.5 °F /  -6.4 °C 30.14in /  1020.5hPa WNW 12.0mph /  19.3km/h 16.0mph /  25.7km/h 88% 0.00in /  0mm 0.00 W/m2
04:04 23.2 °F /  -4.9 °C 20.2 °F /  -6.6 °C 30.14in /  1020.5hPa WNW 12.0mph /  19.3km/h 17.0mph /  27.4km/h 88% 0.00in /  0mm 0.00 W/m2
04:09 23.0 °F /  -5 °C 20.0 °F /  -6.7 °C 30.14in /  1020.5hPa WNW 9.0mph /  14.5km/h 17.0mph /  27.4km/h 88% 0.00in /  0mm 0.00 W/m2
04:14 23.0 °F /  -5 °C 20.0 °F /  -6.7 °C 30.14in /  1020.5hPa WNW 8.0mph /  12.9km/h 17.0mph /  27.4km/h 88% 0.00in /  0mm 0.00 W/m2
04:19 22.8 °F /  -5.1 °C 19.8 °F /  -6.8 °C 30.14in /  1020.5hPa WNW 11.0mph /  17.7km/h 16.0mph /  25.7km/h 88% 0.00in /  0mm 0.00 W/m2
04:24 22.5 °F /  -5.3 °C 19.5 °F /  -6.9 °C 30.14in /  1020.5hPa WNW 11.0mph /  17.7km/h 16.0mph /  25.7km/h 88% 0.00in /  0mm 0.00 W/m2
04:29 22.3 °F /  -5.4 °C 19.3 °F /  -7.1 °C 30.15in /  1020.9hPa NW 10.0mph /  16.1km/h 16.0mph /  25.7km/h 88% 0.00in /  0mm 0.00 W/m2
04:34 22.2 °F /  -5.4 °C 19.5 °F /  -6.9 °C 30.15in /  1020.9hPa WNW 12.0mph /  19.3km/h 16.0mph /  25.7km/h 89% 0.00in /  0mm 0.00 W/m2
04:39 22.1 °F /  -5.5 °C 19.4 °F /  -7 °C 30.15in /  1020.9hPa WNW 8.0mph /  12.9km/h 15.0mph /  24.1km/h 89% 0.00in /  0mm 0.00 W/m2
04:44 22.3 °F /  -5.4 °C 19.6 °F /  -6.9 °C 30.15in /  1020.9hPa WNW 13.0mph /  20.9km/h 15.0mph /  24.1km/h 89% 0.00in /  0mm 0.00 W/m2
04:49 22.3 °F /  -5.4 °C 19.6 °F /  -6.9 °C 30.15in /  1020.9hPa WNW 13.0mph /  20.9km/h 17.0mph /  27.4km/h 89% 0.00in /  0mm 0.00 W/m2
04:54 22.3 °F /  -5.4 °C 19.6 °F /  -6.9 °C 30.15in /  1020.9hPa WNW 11.0mph /  17.7km/h 17.0mph /  27.4km/h 89% 0.00in /  0mm 0.00 W/m2
04:59 22.1 °F /  -5.5 °C 19.4 °F /  -7 °C 30.15in /  1020.9hPa WNW 7.0mph /  11.3km/h 14.0mph /  22.5km/h 89% 0.00in /  0mm 0.00 W/m2
05:04 22.0 °F /  -5.6 °C 19.3 °F /  -7.1 °C 30.15in /  1020.9hPa West 8.0mph /  12.9km/h 14.0mph /  22.5km/h 89% 0.00in /  0mm 0.00 W/m2
05:09 21.7 °F /  -5.7 °C 18.7 °F /  -7.4 °C 30.16in /  1021.2hPa WNW 8.0mph /  12.9km/h 12.0mph /  19.3km/h 88% 0.00in /  0mm 0.00 W/m2
05:14 21.4 °F /  -5.9 °C 18.7 °F /  -7.4 °C 30.16in /  1021.2hPa WNW 7.0mph /  11.3km/h 12.0mph /  19.3km/h 89% 0.00in /  0mm 0.00 W/m2
05:19 21.4 °F /  -5.9 °C 18.7 °F /  -7.4 °C 30.16in /  1021.2hPa WNW 6.0mph /  9.7km/h 12.0mph /  19.3km/h 89% 0.00in /  0mm 0.00 W/m2
05:24 21.4 °F /  -5.9 °C 18.7 °F /  -7.4 °C 30.16in /  1021.2hPa WNW 7.0mph /  11.3km/h 12.0mph /  19.3km/h 89% 0.00in /  0mm 0.00 W/m2
05:29 21.3 °F /  -5.9 °C 18.6 °F /  -7.4 °C 30.16in /  1021.2hPa WNW 9.0mph /  14.5km/h 11.0mph /  17.7km/h 89% 0.00in /  0mm 0.00 W/m2
05:34 21.3 °F /  -5.9 °C 18.6 °F /  -7.4 °C 30.16in /  1021.2hPa WNW 7.0mph /  11.3km/h 11.0mph /  17.7km/h 89% 0.00in /  0mm 0.00 W/m2
05:39 21.1 °F /  -6.1 °C 18.4 °F /  -7.6 °C 30.16in /  1021.2hPa WNW 7.0mph /  11.3km/h 11.0mph /  17.7km/h 89% 0.00in /  0mm 0.00 W/m2
05:44 21.0 °F /  -6.1 °C 18.3 °F /  -7.6 °C 30.16in /  1021.2hPa WNW 9.0mph /  14.5km/h 10.0mph /  16.1km/h 89% 0.00in /  0mm 0.00 W/m2
05:49 20.7 °F /  -6.3 °C 18.0 °F /  -7.8 °C 30.16in /  1021.2hPa WNW 7.0mph /  11.3km/h 12.0mph /  19.3km/h 89% 0.00in /  0mm 0.00 W/m2
05:54 20.6 °F /  -6.3 °C 17.9 °F /  -7.8 °C 30.16in /  1021.2hPa WNW 7.0mph /  11.3km/h 12.0mph /  19.3km/h 89% 0.00in /  0mm 0.00 W/m2
05:59 20.6 °F /  -6.3 °C 17.9 °F /  -7.8 °C 30.17in /  1021.6hPa NW 5.0mph /  8km/h 10.0mph /  16.1km/h 89% 0.00in /  0mm 0.00 W/m2
06:04 20.4 °F /  -6.4 °C 17.7 °F /  -7.9 °C 30.17in /  1021.6hPa WNW 6.0mph /  9.7km/h 9.0mph /  14.5km/h 89% 0.00in /  0mm 0.00 W/m2
06:09 20.2 °F /  -6.6 °C 17.5 °F /  -8.1 °C 30.17in /  1021.6hPa WNW 8.0mph /  12.9km/h 9.0mph /  14.5km/h 89% 0.00in /  0mm 0.00 W/m2
06:14 20.1 °F /  -6.6 °C 17.4 °F /  -8.1 °C 30.17in /  1021.6hPa West 5.0mph /  8km/h 9.0mph /  14.5km/h 89% 0.00in /  0mm 0.00 W/m2
06:19 20.0 °F /  -6.7 °C 17.3 °F /  -8.2 °C 30.17in /  1021.6hPa West 6.0mph /  9.7km/h 9.0mph /  14.5km/h 89% 0.00in /  0mm 0.00 W/m2
06:24 20.0 °F /  -6.7 °C 17.3 °F /  -8.2 °C 30.17in /  1021.6hPa WNW 4.0mph /  6.4km/h 9.0mph /  14.5km/h 89% 0.00in /  0mm 0.00 W/m2
06:29 19.9 °F /  -6.7 °C 17.2 °F /  -8.2 °C 30.17in /  1021.6hPa WNW 5.0mph /  8km/h 8.0mph /  12.9km/h 89% 0.00in /  0mm 0.00 W/m2
06:34 20.1 °F /  -6.6 °C 17.6 °F /  -8 °C 30.17in /  1021.6hPa WNW 7.0mph /  11.3km/h 10.0mph /  16.1km/h 90% 0.00in /  0mm 0.00 W/m2
06:39 20.5 °F /  -6.4 °C 18.0 °F /  -7.8 °C 30.17in /  1021.6hPa WNW 8.0mph /  12.9km/h 11.0mph /  17.7km/h 90% 0.00in /  0mm 0.00 W/m2
06:44 20.2 °F /  -6.6 °C 17.5 °F /  -8.1 °C 30.17in /  1021.6hPa NW 11.0mph /  17.7km/h 11.0mph /  17.7km/h 89% 0.00in /  0mm 0.00 W/m2
06:49 20.1 °F /  -6.6 °C 17.4 °F /  -8.1 °C 30.17in /  1021.6hPa WNW 7.0mph /  11.3km/h 11.0mph /  17.7km/h 89% 0.00in /  0mm 0.00 W/m2
06:54 20.0 °F /  -6.7 °C 17.3 °F /  -8.2 °C 30.17in /  1021.6hPa West 7.0mph /  11.3km/h 11.0mph /  17.7km/h 89% 0.00in /  0mm 0.00 W/m2
06:59 19.2 °F /  -7.1 °C 16.2 °F /  -8.8 °C 30.18in /  1021.9hPa West 5.0mph /  8km/h 10.0mph /  16.1km/h 88% 0.00in /  0mm 0.00 W/m2
07:04 19.0 °F /  -7.2 °C 16.3 °F /  -8.7 °C 30.18in /  1021.9hPa West 7.0mph /  11.3km/h 9.0mph /  14.5km/h 89% 0.00in /  0mm 0.00 W/m2
07:09 18.8 °F /  -7.3 °C 16.1 °F /  -8.8 °C 30.18in /  1021.9hPa West 7.0mph /  11.3km/h 9.0mph /  14.5km/h 89% 0.00in /  0mm 0.00 W/m2
07:14 18.9 °F /  -7.3 °C 16.5 °F /  -8.6 °C 30.18in /  1021.9hPa WNW 5.0mph /  8km/h 9.0mph /  14.5km/h 90% 0.00in /  0mm 0.00 W/m2
07:19 18.4 °F /  -7.6 °C 15.7 °F /  -9.1 °C 30.18in /  1021.9hPa West 5.0mph /  8km/h 8.0mph /  12.9km/h 89% 0.00in /  0mm 0.00 W/m2
07:24 17.3 °F /  -8.2 °C 14.4 °F /  -9.8 °C 30.18in /  1021.9hPa WSW 5.0mph /  8km/h 7.0mph /  11.3km/h 88% 0.00in /  0mm 0.00 W/m2
07:29 16.5 °F /  -8.6 °C 13.8 °F /  -10.1 °C 30.18in /  1021.9hPa West 6.0mph /  9.7km/h 7.0mph /  11.3km/h 89% 0.00in /  0mm 0.00 W/m2
07:34 16.2 °F /  -8.8 °C 13.5 °F /  -10.3 °C 30.18in /  1021.9hPa WSW 5.0mph /  8km/h 7.0mph /  11.3km/h 89% 0.00in /  0mm 0.00 W/m2
07:39 16.2 °F /  -8.8 °C 13.8 °F /  -10.1 °C 30.19in /  1022.2hPa West 7.0mph /  11.3km/h 8.0mph /  12.9km/h 90% 0.00in /  0mm 0.00 W/m2
07:44 16.8 °F /  -8.4 °C 14.6 °F /  -9.7 °C 30.19in /  1022.2hPa WSW 6.0mph /  9.7km/h 8.0mph /  12.9km/h 91% 0.00in /  0mm 0.00 W/m2
07:49 17.2 °F /  -8.2 °C 15.0 °F /  -9.4 °C 30.19in /  1022.2hPa WSW 4.0mph /  6.4km/h 8.0mph /  12.9km/h 91% 0.00in /  0mm 0.00 W/m2
07:54 17.3 °F /  -8.2 °C 15.1 °F /  -9.4 °C 30.19in /  1022.2hPa WSW 7.0mph /  11.3km/h 9.0mph /  14.5km/h 91% 0.00in /  0mm 5.00 W/m2
07:59 18.1 °F /  -7.7 °C 15.9 °F /  -8.9 °C 30.19in /  1022.2hPa West 4.0mph /  6.4km/h 9.0mph /  14.5km/h 91% 0.00in /  0mm 9.00 W/m2
08:04 18.2 °F /  -7.7 °C 16.0 °F /  -8.9 °C 30.19in /  1022.2hPa West 5.0mph /  8km/h 9.0mph /  14.5km/h 91% 0.00in /  0mm 12.00 W/m2
08:09 18.1 °F /  -7.7 °C 15.9 °F /  -8.9 °C 30.19in /  1022.2hPa WSW 3.0mph /  4.8km/h 8.0mph /  12.9km/h 91% 0.00in /  0mm 14.00 W/m2
08:14 17.8 °F /  -7.9 °C 15.4 °F /  -9.2 °C 30.20in /  1022.6hPa West 4.0mph /  6.4km/h 8.0mph /  12.9km/h 90% 0.00in /  0mm 18.00 W/m2
08:19 17.5 °F /  -8.1 °C 15.1 °F /  -9.4 °C 30.20in /  1022.6hPa WSW 4.0mph /  6.4km/h 7.0mph /  11.3km/h 90% 0.00in /  0mm 21.00 W/m2
08:24 17.0 °F /  -8.3 °C 14.6 °F /  -9.7 °C 30.20in /  1022.6hPa WSW 4.0mph /  6.4km/h 7.0mph /  11.3km/h 90% 0.00in /  0mm 25.00 W/m2
08:29 16.6 °F /  -8.6 °C 14.2 °F /  -9.9 °C 30.20in /  1022.6hPa WSW 3.0mph /  4.8km/h 6.0mph /  9.7km/h 90% 0.00in /  0mm 26.00 W/m2
08:34 16.3 °F /  -8.7 °C 13.9 °F /  -10.1 °C 30.20in /  1022.6hPa WSW 3.0mph /  4.8km/h 6.0mph /  9.7km/h 90% 0.00in /  0mm 30.00 W/m2
08:39 16.4 °F /  -8.7 °C 14.2 °F /  -9.9 °C 30.20in /  1022.6hPa West 4.0mph /  6.4km/h 6.0mph /  9.7km/h 91% 0.00in /  0mm 49.00 W/m2
08:44 16.8 °F /  -8.4 °C 14.6 °F /  -9.7 °C 30.21in /  1022.9hPa West 5.0mph /  8km/h 7.0mph /  11.3km/h 91% 0.00in /  0mm 76.00 W/m2
08:49 17.0 °F /  -8.3 °C 14.8 °F /  -9.6 °C 30.21in /  1022.9hPa West 6.0mph /  9.7km/h 8.0mph /  12.9km/h 91% 0.00in /  0mm 100.00 W/m2
08:54 17.1 °F /  -8.3 °C 14.9 °F /  -9.5 °C 30.21in /  1022.9hPa West 8.0mph /  12.9km/h 10.0mph /  16.1km/h 91% 0.00in /  0mm 116.00 W/m2
08:59 17.4 °F /  -8.1 °C 15.0 °F /  -9.4 °C 30.21in /  1022.9hPa West 6.0mph /  9.7km/h 10.0mph /  16.1km/h 90% 0.00in /  0mm 135.00 W/m2
09:04 17.5 °F /  -8.1 °C 15.1 °F /  -9.4 °C 30.21in /  1022.9hPa West 6.0mph /  9.7km/h 9.0mph /  14.5km/h 90% 0.00in /  0mm 153.00 W/m2
09:09 17.5 °F /  -8.1 °C 15.1 °F /  -9.4 °C 30.21in /  1022.9hPa West 6.0mph /  9.7km/h 8.0mph /  12.9km/h 90% 0.00in /  0mm 160.00 W/m2
09:14 17.9 °F /  -7.8 °C 15.5 °F /  -9.2 °C 30.21in /  1022.9hPa West 5.0mph /  8km/h 8.0mph /  12.9km/h 90% 0.00in /  0mm 162.00 W/m2
09:19 18.1 °F /  -7.7 °C 15.7 °F /  -9.1 °C 30.21in /  1022.9hPa West 8.0mph /  12.9km/h 8.0mph /  12.9km/h 90% 0.00in /  0mm 176.00 W/m2
09:24 18.4 °F /  -7.6 °C 16.0 °F /  -8.9 °C 30.21in /  1022.9hPa West 4.0mph /  6.4km/h 9.0mph /  14.5km/h 90% 0.00in /  0mm 213.00 W/m2
09:29 18.8 °F /  -7.3 °C 16.4 °F /  -8.7 °C 30.21in /  1022.9hPa WNW 6.0mph /  9.7km/h 9.0mph /  14.5km/h 90% 0.00in /  0mm 244.00 W/m2
09:34 18.8 °F /  -7.3 °C 16.1 °F /  -8.8 °C 30.22in /  1023.2hPa West 7.0mph /  11.3km/h 8.0mph /  12.9km/h 89% 0.00in /  0mm 262.00 W/m2
09:39 18.9 °F /  -7.3 °C 16.2 °F /  -8.8 °C 30.22in /  1023.2hPa West 6.0mph /  9.7km/h 9.0mph /  14.5km/h 89% 0.00in /  0mm 278.00 W/m2
09:44 18.9 °F /  -7.3 °C 15.9 °F /  -8.9 °C 30.22in /  1023.2hPa West 6.0mph /  9.7km/h 9.0mph /  14.5km/h 88% 0.00in /  0mm 297.00 W/m2
09:49 19.0 °F /  -7.2 °C 16.0 °F /  -8.9 °C 30.22in /  1023.2hPa West 5.0mph /  8km/h 8.0mph /  12.9km/h 88% 0.00in /  0mm 315.00 W/m2
09:54 19.2 °F /  -7.1 °C 16.2 °F /  -8.8 °C 30.22in /  1023.2hPa West 6.0mph /  9.7km/h 8.0mph /  12.9km/h 88% 0.00in /  0mm 325.00 W/m2
09:59 19.4 °F /  -7 °C 16.4 °F /  -8.7 °C 30.22in /  1023.2hPa WSW 5.0mph /  8km/h 7.0mph /  11.3km/h 88% 0.00in /  0mm 306.00 W/m2
10:04 19.5 °F /  -6.9 °C 16.5 °F /  -8.6 °C 30.23in /  1023.6hPa WSW 7.0mph /  11.3km/h 8.0mph /  12.9km/h 88% 0.00in /  0mm 285.00 W/m2
10:09 19.6 °F /  -6.9 °C 16.6 °F /  -8.6 °C 30.23in /  1023.6hPa West 6.0mph /  9.7km/h 8.0mph /  12.9km/h 88% 0.00in /  0mm 297.00 W/m2
10:14 19.9 °F /  -6.7 °C 16.9 °F /  -8.4 °C 30.23in /  1023.6hPa WSW 7.0mph /  11.3km/h 8.0mph /  12.9km/h 88% 0.00in /  0mm 334.00 W/m2
10:19 20.2 °F /  -6.6 °C 17.2 °F /  -8.2 °C 30.23in /  1023.6hPa West 7.0mph /  11.3km/h 9.0mph /  14.5km/h 88% 0.00in /  0mm 346.00 W/m2
10:24 20.6 °F /  -6.3 °C 17.6 °F /  -8 °C 30.23in /  1023.6hPa West 7.0mph /  11.3km/h 9.0mph /  14.5km/h 88% 0.00in /  0mm 346.00 W/m2
10:29 20.9 °F /  -6.2 °C 17.6 °F /  -8 °C 30.23in /  1023.6hPa West 7.0mph /  11.3km/h 9.0mph /  14.5km/h 87% 0.00in /  0mm 346.00 W/m2
10:34 21.1 °F /  -6.1 °C 17.8 °F /  -7.9 °C 30.23in /  1023.6hPa WSW 7.0mph /  11.3km/h 9.0mph /  14.5km/h 87% 0.00in /  0mm 341.00 W/m2
10:39 21.5 °F /  -5.8 °C 18.2 °F /  -7.7 °C 30.23in /  1023.6hPa WSW 7.0mph /  11.3km/h 9.0mph /  14.5km/h 87% 0.00in /  0mm 308.00 W/m2
10:44 21.7 °F /  -5.7 °C 18.4 °F /  -7.6 °C 30.23in /  1023.6hPa West 7.0mph /  11.3km/h 10.0mph /  16.1km/h 87% 0.00in /  0mm 295.00 W/m2
10:49 21.8 °F /  -5.7 °C 18.3 °F /  -7.6 °C 30.23in /  1023.6hPa West 9.0mph /  14.5km/h 11.0mph /  17.7km/h 86% 0.00in /  0mm 383.00 W/m2
10:54 22.0 °F /  -5.6 °C 18.5 °F /  -7.5 °C 30.23in /  1023.6hPa West 7.0mph /  11.3km/h 13.0mph /  20.9km/h 86% 0.00in /  0mm 369.00 W/m2
10:59 22.4 °F /  -5.3 °C 19.1 °F /  -7.2 °C 30.23in /  1023.6hPa West 8.0mph /  12.9km/h 14.0mph /  22.5km/h 87% 0.00in /  0mm 392.00 W/m2
11:04 22.7 °F /  -5.2 °C 19.1 °F /  -7.2 °C 30.23in /  1023.6hPa WNW 10.0mph /  16.1km/h 14.0mph /  22.5km/h 86% 0.00in /  0mm 387.00 W/m2
11:09 23.0 °F /  -5 °C 19.4 °F /  -7 °C 30.24in /  1023.9hPa WNW 10.0mph /  16.1km/h 15.0mph /  24.1km/h 86% 0.00in /  0mm 408.00 W/m2
11:14 23.2 °F /  -4.9 °C 19.6 °F /  -6.9 °C 30.23in /  1023.6hPa WNW 8.0mph /  12.9km/h 15.0mph /  24.1km/h 86% 0.00in /  0mm 448.00 W/m2
11:19 23.4 °F /  -4.8 °C 19.6 °F /  -6.9 °C 30.24in /  1023.9hPa West 7.0mph /  11.3km/h 12.0mph /  19.3km/h 85% 0.00in /  0mm 503.00 W/m2
11:24 23.7 °F /  -4.6 °C 19.9 °F /  -6.7 °C 30.24in /  1023.9hPa West 6.0mph /  9.7km/h 12.0mph /  19.3km/h 85% 0.00in /  0mm 547.00 W/m2
11:29 24.1 °F /  -4.4 °C 20.2 °F /  -6.6 °C 30.24in /  1023.9hPa West 6.0mph /  9.7km/h 12.0mph /  19.3km/h 85% 0.00in /  0mm 559.00 W/m2
11:34 24.2 °F /  -4.3 °C 20.3 °F /  -6.5 °C 30.24in /  1023.9hPa West 7.0mph /  11.3km/h 10.0mph /  16.1km/h 85% 0.00in /  0mm 568.00 W/m2
11:39 24.1 °F /  -4.4 °C 20.2 °F /  -6.6 °C 30.24in /  1023.9hPa West 11.0mph /  17.7km/h 11.0mph /  17.7km/h 85% 0.00in /  0mm 578.00 W/m2
11:44 24.2 °F /  -4.3 °C 20.3 °F /  -6.5 °C 30.24in /  1023.9hPa West 7.0mph /  11.3km/h 11.0mph /  17.7km/h 85% 0.00in /  0mm 589.00 W/m2
11:49 24.5 °F /  -4.2 °C 20.6 °F /  -6.3 °C 30.24in /  1023.9hPa WSW 7.0mph /  11.3km/h 11.0mph /  17.7km/h 85% 0.00in /  0mm 599.00 W/m2
11:54 24.7 °F /  -4.1 °C 20.6 °F /  -6.3 °C 30.24in /  1023.9hPa West 7.0mph /  11.3km/h 11.0mph /  17.7km/h 84% 0.00in /  0mm 612.00 W/m2
11:59 24.9 °F /  -3.9 °C 20.8 °F /  -6.2 °C 30.24in /  1023.9hPa West 6.0mph /  9.7km/h 11.0mph /  17.7km/h 84% 0.00in /  0mm 617.00 W/m2
12:04 25.2 °F /  -3.8 °C 21.0 °F /  -6.1 °C 30.24in /  1023.9hPa West 6.0mph /  9.7km/h 8.0mph /  12.9km/h 84% 0.00in /  0mm 628.00 W/m2
12:09 25.4 °F /  -3.7 °C 21.2 °F /  -6 °C 30.23in /  1023.6hPa West 7.0mph /  11.3km/h 8.0mph /  12.9km/h 84% 0.00in /  0mm 633.00 W/m2
12:14 25.5 °F /  -3.6 °C 21.3 °F /  -5.9 °C 30.24in /  1023.9hPa West 5.0mph /  8km/h 8.0mph /  12.9km/h 84% 0.00in /  0mm 640.00 W/m2
12:19 25.8 °F /  -3.4 °C 21.3 °F /  -5.9 °C 30.24in /  1023.9hPa WSW 8.0mph /  12.9km/h 8.0mph /  12.9km/h 83% 0.00in /  0mm 652.00 W/m2
12:24 25.9 °F /  -3.4 °C 21.4 °F /  -5.9 °C 30.24in /  1023.9hPa WSW 9.0mph /  14.5km/h 10.0mph /  16.1km/h 83% 0.00in /  0mm 661.00 W/m2
12:29 26.0 °F /  -3.3 °C 21.5 °F /  -5.8 °C 30.24in /  1023.9hPa West 5.0mph /  8km/h 11.0mph /  17.7km/h 83% 0.00in /  0mm 668.00 W/m2
12:34 26.2 °F /  -3.2 °C 21.7 °F /  -5.7 °C 30.24in /  1023.9hPa West 5.0mph /  8km/h 11.0mph /  17.7km/h 83% 0.00in /  0mm 673.00 W/m2
12:39 26.4 °F /  -3.1 °C 21.9 °F /  -5.6 °C 30.24in /  1023.9hPa West 8.0mph /  12.9km/h 8.0mph /  12.9km/h 83% 0.00in /  0mm 684.00 W/m2
12:44 26.5 °F /  -3.1 °C 22.0 °F /  -5.6 °C 30.24in /  1023.9hPa WSW 9.0mph /  14.5km/h 10.0mph /  16.1km/h 83% 0.00in /  0mm 687.00 W/m2
12:49 26.7 °F /  -2.9 °C 22.2 °F /  -5.4 °C 30.24in /  1023.9hPa West 10.0mph /  16.1km/h 11.0mph /  17.7km/h 83% 0.00in /  0mm 691.00 W/m2
12:54 26.9 °F /  -2.8 °C 22.4 °F /  -5.3 °C 30.24in /  1023.9hPa West 8.0mph /  12.9km/h 11.0mph /  17.7km/h 83% 0.00in /  0mm 700.00 W/m2
12:59 27.1 °F /  -2.7 °C 22.6 °F /  -5.2 °C 30.24in /  1023.9hPa West 7.0mph /  11.3km/h 11.0mph /  17.7km/h 83% 0.00in /  0mm 701.00 W/m2
13:04 27.4 °F /  -2.6 °C 22.9 °F /  -5.1 °C 30.24in /  1023.9hPa West 7.0mph /  11.3km/h 10.0mph /  16.1km/h 83% 0.00in /  0mm 703.00 W/m2
13:09 27.8 °F /  -2.3 °C 23.3 °F /  -4.8 °C 30.24in /  1023.9hPa West 5.0mph /  8km/h 10.0mph /  16.1km/h 83% 0.00in /  0mm 710.00 W/m2
13:14 28.0 °F /  -2.2 °C 23.5 °F /  -4.7 °C 30.24in /  1023.9hPa West 8.0mph /  12.9km/h 10.0mph /  16.1km/h 83% 0.00in /  0mm 705.00 W/m2
13:19 28.4 °F /  -2 °C 24.2 °F /  -4.3 °C 30.24in /  1023.9hPa WSW 9.0mph /  14.5km/h 10.0mph /  16.1km/h 84% 0.00in /  0mm 721.00 W/m2
13:24 28.4 °F /  -2 °C 23.9 °F /  -4.5 °C 30.24in /  1023.9hPa West 9.0mph /  14.5km/h 11.0mph /  17.7km/h 83% 0.00in /  0mm 717.00 W/m2
13:29 28.5 °F /  -1.9 °C 24.0 °F /  -4.4 °C 30.25in /  1024.3hPa West 8.0mph /  12.9km/h 12.0mph /  19.3km/h 83% 0.00in /  0mm 722.00 W/m2
13:34 28.6 °F /  -1.9 °C 24.1 °F /  -4.4 °C 30.25in /  1024.3hPa WSW 9.0mph /  14.5km/h 12.0mph /  19.3km/h 83% 0.00in /  0mm 726.00 W/m2
13:39 28.8 °F /  -1.8 °C 24.3 °F /  -4.3 °C 30.25in /  1024.3hPa West 10.0mph /  16.1km/h 11.0mph /  17.7km/h 83% 0.00in /  0mm 719.00 W/m2
13:44 28.9 °F /  -1.7 °C 24.4 °F /  -4.2 °C 30.24in /  1023.9hPa WNW 12.0mph /  19.3km/h 14.0mph /  22.5km/h 83% 0.00in /  0mm 726.00 W/m2
13:49 28.9 °F /  -1.7 °C 24.4 °F /  -4.2 °C 30.24in /  1023.9hPa West 9.0mph /  14.5km/h 14.0mph /  22.5km/h 83% 0.00in /  0mm 728.00 W/m2
13:54 28.9 °F /  -1.7 °C 24.1 °F /  -4.4 °C 30.23in /  1023.6hPa West 15.0mph /  24.1km/h 15.0mph /  24.1km/h 82% 0.00in /  0mm 729.00 W/m2
13:59 29.0 °F /  -1.7 °C 24.5 °F /  -4.2 °C 30.23in /  1023.6hPa West 12.0mph /  19.3km/h 15.0mph /  24.1km/h 83% 0.00in /  0mm 735.00 W/m2
14:04 29.1 °F /  -1.6 °C 24.6 °F /  -4.1 °C 30.23in /  1023.6hPa West 12.0mph /  19.3km/h 17.0mph /  27.4km/h 83% 0.00in /  0mm 686.00 W/m2
14:09 29.2 °F /  -1.6 °C 24.4 °F /  -4.2 °C 30.23in /  1023.6hPa West 10.0mph /  16.1km/h 17.0mph /  27.4km/h 82% 0.00in /  0mm 515.00 W/m2
14:14 29.3 °F /  -1.5 °C 24.5 °F /  -4.2 °C 30.23in /  1023.6hPa West 12.0mph /  19.3km/h 15.0mph /  24.1km/h 82% 0.00in /  0mm 759.00 W/m2
14:19 29.6 °F /  -1.3 °C 24.8 °F /  -4 °C 30.23in /  1023.6hPa WNW 10.0mph /  16.1km/h 14.0mph /  22.5km/h 82% 0.00in /  0mm 731.00 W/m2
14:24 30.0 °F /  -1.1 °C 25.2 °F /  -3.8 °C 30.23in /  1023.6hPa West 9.0mph /  14.5km/h 14.0mph /  22.5km/h 82% 0.00in /  0mm 726.00 W/m2
14:29 30.0 °F /  -1.1 °C 25.2 °F /  -3.8 °C 30.23in /  1023.6hPa West 8.0mph /  12.9km/h 12.0mph /  19.3km/h 82% 0.00in /  0mm 728.00 W/m2
14:34 30.1 °F /  -1.1 °C 25.0 °F /  -3.9 °C 30.23in /  1023.6hPa WNW 9.0mph /  14.5km/h 13.0mph /  20.9km/h 81% 0.00in /  0mm 729.00 W/m2
14:39 30.2 °F /  -1 °C 25.4 °F /  -3.7 °C 30.22in /  1023.2hPa West 9.0mph /  14.5km/h 13.0mph /  20.9km/h 82% 0.00in /  0mm 705.00 W/m2
14:44 30.2 °F /  -1 °C 25.1 °F /  -3.8 °C 30.23in /  1023.6hPa West 8.0mph /  12.9km/h 11.0mph /  17.7km/h 81% 0.00in /  0mm 636.00 W/m2
14:49 30.3 °F /  -0.9 °C 25.2 °F /  -3.8 °C 30.22in /  1023.2hPa West 9.0mph /  14.5km/h 11.0mph /  17.7km/h 81% 0.00in /  0mm 698.00 W/m2
14:54 30.5 °F /  -0.8 °C 25.4 °F /  -3.7 °C 30.22in /  1023.2hPa West 8.0mph /  12.9km/h 11.0mph /  17.7km/h 81% 0.00in /  0mm 731.00 W/m2
14:59 30.7 °F /  -0.7 °C 25.6 °F /  -3.6 °C 30.22in /  1023.2hPa West 7.0mph /  11.3km/h 11.0mph /  17.7km/h 81% 0.00in /  0mm 717.00 W/m2
15:04 30.9 °F /  -0.6 °C 25.5 °F /  -3.6 °C 30.22in /  1023.2hPa West 9.0mph /  14.5km/h 11.0mph /  17.7km/h 80% 0.00in /  0mm 700.00 W/m2
15:09 30.8 °F /  -0.7 °C 25.4 °F /  -3.7 °C 30.21in /  1022.9hPa West 6.0mph /  9.7km/h 11.0mph /  17.7km/h 80% 0.00in /  0mm 701.00 W/m2
15:14 30.9 °F /  -0.6 °C 25.5 °F /  -3.6 °C 30.21in /  1022.9hPa West 8.0mph /  12.9km/h 10.0mph /  16.1km/h 80% 0.00in /  0mm 601.00 W/m2
15:19 31.1 °F /  -0.5 °C 25.7 °F /  -3.5 °C 30.21in /  1022.9hPa WNW 8.0mph /  12.9km/h 10.0mph /  16.1km/h 80% 0.00in /  0mm 650.00 W/m2
15:24 31.3 °F /  -0.4 °C 25.5 °F /  -3.6 °C 30.21in /  1022.9hPa WNW 9.0mph /  14.5km/h 10.0mph /  16.1km/h 79% 0.00in /  0mm 722.00 W/m2
15:29 31.5 °F /  -0.3 °C 26.0 °F /  -3.3 °C 30.21in /  1022.9hPa West 9.0mph /  14.5km/h 11.0mph /  17.7km/h 80% 0.00in /  0mm 580.00 W/m2
15:34 31.5 °F /  -0.3 °C 25.7 °F /  -3.5 °C 30.21in /  1022.9hPa West 7.0mph /  11.3km/h 11.0mph /  17.7km/h 79% 0.00in /  0mm 705.00 W/m2
15:39 31.6 °F /  -0.2 °C 26.1 °F /  -3.3 °C 30.21in /  1022.9hPa West 7.0mph /  11.3km/h 10.0mph /  16.1km/h 80% 0.00in /  0mm 682.00 W/m2
15:44 31.5 °F /  -0.3 °C 26.0 °F /  -3.3 °C 30.21in /  1022.9hPa West 7.0mph /  11.3km/h 10.0mph /  16.1km/h 80% 0.00in /  0mm 721.00 W/m2
15:49 31.7 °F /  -0.2 °C 26.2 °F /  -3.2 °C 30.21in /  1022.9hPa West 6.0mph /  9.7km/h 10.0mph /  16.1km/h 80% 0.00in /  0mm 638.00 W/m2
15:54 31.8 °F /  -0.1 °C 26.0 °F /  -3.3 °C 30.21in /  1022.9hPa WSW 9.0mph /  14.5km/h 10.0mph /  16.1km/h 79% 0.00in /  0mm 659.00 W/m2
15:59 31.7 °F /  -0.2 °C 25.9 °F /  -3.4 °C 30.21in /  1022.9hPa WSW 7.0mph /  11.3km/h 11.0mph /  17.7km/h 79% 0.00in /  0mm 548.00 W/m2
16:04 31.8 °F /  -0.1 °C 26.0 °F /  -3.3 °C 30.21in /  1022.9hPa WSW 9.0mph /  14.5km/h 11.0mph /  17.7km/h 79% 0.00in /  0mm 475.00 W/m2
16:09 31.8 °F /  -0.1 °C 26.0 °F /  -3.3 °C 30.21in /  1022.9hPa West 7.0mph /  11.3km/h 10.0mph /  16.1km/h 79% 0.00in /  0mm 459.00 W/m2
16:14 31.9 °F /  -0.1 °C 26.1 °F /  -3.3 °C 30.21in /  1022.9hPa West 5.0mph /  8km/h 9.0mph /  14.5km/h 79% 0.00in /  0mm 587.00 W/m2
16:19 32.1 °F /  0.1 °C 26.3 °F /  -3.2 °C 30.21in /  1022.9hPa WSW 7.0mph /  11.3km/h 8.0mph /  12.9km/h 79% 0.00in /  0mm 610.00 W/m2
16:24 32.3 °F /  0.2 °C 26.2 °F /  -3.2 °C 30.21in /  1022.9hPa WSW 6.0mph /  9.7km/h 8.0mph /  12.9km/h 78% 0.00in /  0mm 559.00 W/m2
16:29 32.4 °F /  0.2 °C 26.6 °F /  -3 °C 30.21in /  1022.9hPa West 7.0mph /  11.3km/h 8.0mph /  12.9km/h 79% 0.00in /  0mm 582.00 W/m2
16:34 32.4 °F /  0.2 °C 26.6 °F /  -3 °C 30.21in /  1022.9hPa WSW 7.0mph /  11.3km/h 9.0mph /  14.5km/h 79% 0.00in /  0mm 575.00 W/m2
16:39 32.4 °F /  0.2 °C 26.3 °F /  -3.2 °C 30.21in /  1022.9hPa West 7.0mph /  11.3km/h 9.0mph /  14.5km/h 78% 0.00in /  0mm 536.00 W/m2
16:44 32.1 °F /  0.1 °C 26.3 °F /  -3.2 °C 30.21in /  1022.9hPa West 6.0mph /  9.7km/h 8.0mph /  12.9km/h 79% 0.00in /  0mm 374.00 W/m2
16:49 32.3 °F /  0.2 °C 26.5 °F /  -3.1 °C 30.21in /  1022.9hPa WSW 6.0mph /  9.7km/h 9.0mph /  14.5km/h 79% 0.00in /  0mm 555.00 W/m2
16:54 32.7 °F /  0.4 °C 26.9 °F /  -2.8 °C 30.21in /  1022.9hPa West 6.0mph /  9.7km/h 9.0mph /  14.5km/h 79% 0.00in /  0mm 589.00 W/m2
16:59 32.7 °F /  0.4 °C 26.6 °F /  -3 °C 30.21in /  1022.9hPa West 8.0mph /  12.9km/h 9.0mph /  14.5km/h 78% 0.00in /  0mm 582.00 W/m2
17:04 32.7 °F /  0.4 °C 26.6 °F /  -3 °C 30.22in /  1023.2hPa West 8.0mph /  12.9km/h 9.0mph /  14.5km/h 78% 0.00in /  0mm 534.00 W/m2
17:09 32.6 °F /  0.3 °C 26.5 °F /  -3.1 °C 30.21in /  1022.9hPa West 5.0mph /  8km/h 9.0mph /  14.5km/h 78% 0.00in /  0mm 385.00 W/m2
17:14 32.4 °F /  0.2 °C 26.3 °F /  -3.2 °C 30.21in /  1022.9hPa West 6.0mph /  9.7km/h 9.0mph /  14.5km/h 78% 0.00in /  0mm 425.00 W/m2
17:19 32.5 °F /  0.3 °C 26.4 °F /  -3.1 °C 30.21in /  1022.9hPa West 6.0mph /  9.7km/h 9.0mph /  14.5km/h 78% 0.00in /  0mm 469.00 W/m2
17:24 32.5 °F /  0.3 °C 26.1 °F /  -3.3 °C 30.21in /  1022.9hPa West 5.0mph /  8km/h 9.0mph /  14.5km/h 77% 0.00in /  0mm 457.00 W/m2
17:29 32.1 °F /  0.1 °C 26.0 °F /  -3.3 °C 30.21in /  1022.9hPa West 6.0mph /  9.7km/h 8.0mph /  12.9km/h 78% 0.00in /  0mm 258.00 W/m2
17:34 31.8 °F /  -0.1 °C 25.7 °F /  -3.5 °C 30.22in /  1023.2hPa West 6.0mph /  9.7km/h 8.0mph /  12.9km/h 78% 0.00in /  0mm 246.00 W/m2
17:39 31.9 °F /  -0.1 °C 26.1 °F /  -3.3 °C 30.21in /  1022.9hPa West 4.0mph /  6.4km/h 8.0mph /  12.9km/h 79% 0.00in /  0mm 427.00 W/m2
17:44 32.4 °F /  0.2 °C 26.3 °F /  -3.2 °C 30.22in /  1023.2hPa West 8.0mph /  12.9km/h 8.0mph /  12.9km/h 78% 0.00in /  0mm 413.00 W/m2
17:49 32.5 °F /  0.3 °C 26.1 °F /  -3.3 °C 30.21in /  1022.9hPa West 5.0mph /  8km/h 8.0mph /  12.9km/h 77% 0.00in /  0mm 371.00 W/m2
17:54 32.6 °F /  0.3 °C 26.2 °F /  -3.2 °C 30.22in /  1023.2hPa WNW 5.0mph /  8km/h 7.0mph /  11.3km/h 77% 0.00in /  0mm 299.00 W/m2
17:59 32.7 °F /  0.4 °C 26.0 °F /  -3.3 °C 30.22in /  1023.2hPa WNW 4.0mph /  6.4km/h 7.0mph /  11.3km/h 76% 0.00in /  0mm 322.00 W/m2
18:04 32.8 °F /  0.4 °C 26.1 °F /  -3.3 °C 30.22in /  1023.2hPa West 3.0mph /  4.8km/h 7.0mph /  11.3km/h 76% 0.00in /  0mm 308.00 W/m2
18:09 32.9 °F /  0.5 °C 26.2 °F /  -3.2 °C 30.21in /  1022.9hPa WNW 4.0mph /  6.4km/h 6.0mph /  9.7km/h 76% 0.00in /  0mm 278.00 W/m2
18:14 32.8 °F /  0.4 °C 26.1 °F /  -3.3 °C 30.22in /  1023.2hPa WNW 5.0mph /  8km/h 6.0mph /  9.7km/h 76% 0.00in /  0mm 209.00 W/m2
18:19 32.6 °F /  0.3 °C 25.9 °F /  -3.4 °C 30.21in /  1022.9hPa West 4.0mph /  6.4km/h 7.0mph /  11.3km/h 76% 0.00in /  0mm 216.00 W/m2
18:24 32.5 °F /  0.3 °C 26.1 °F /  -3.3 °C 30.21in /  1022.9hPa West 4.0mph /  6.4km/h 7.0mph /  11.3km/h 77% 0.00in /  0mm 181.00 W/m2
18:29 32.3 °F /  0.2 °C 26.2 °F /  -3.2 °C 30.21in /  1022.9hPa West 4.0mph /  6.4km/h 6.0mph /  9.7km/h 78% 0.00in /  0mm 167.00 W/m2
18:34 32.3 °F /  0.2 °C 26.2 °F /  -3.2 °C 30.21in /  1022.9hPa West 3.0mph /  4.8km/h 6.0mph /  9.7km/h 78% 0.00in /  0mm 167.00 W/m2
18:39 32.1 °F /  0.1 °C 26.0 °F /  -3.3 °C 30.21in /  1022.9hPa West 3.0mph /  4.8km/h 5.0mph /  8km/h 78% 0.00in /  0mm 69.00 W/m2
18:44 31.5 °F /  -0.3 °C 25.7 °F /  -3.5 °C 30.21in /  1022.9hPa West 3.0mph /  4.8km/h 5.0mph /  8km/h 79% 0.00in /  0mm 60.00 W/m2
18:49 31.0 °F /  -0.6 °C 25.6 °F /  -3.6 °C 30.21in /  1022.9hPa West 3.0mph /  4.8km/h 4.0mph /  6.4km/h 80% 0.00in /  0mm 54.00 W/m2
18:54 30.6 °F /  -0.8 °C 25.5 °F /  -3.6 °C 30.21in /  1022.9hPa West 3.0mph /  4.8km/h 5.0mph /  8km/h 81% 0.00in /  0mm 40.00 W/m2
18:59 30.3 °F /  -0.9 °C 25.2 °F /  -3.8 °C 30.20in /  1022.6hPa WSW 2.0mph /  3.2km/h 5.0mph /  8km/h 81% 0.00in /  0mm 35.00 W/m2
19:04 30.0 °F /  -1.1 °C 24.9 °F /  -3.9 °C 30.21in /  1022.9hPa West 2.0mph /  3.2km/h 4.0mph /  6.4km/h 81% 0.00in /  0mm 33.00 W/m2
19:09 29.9 °F /  -1.2 °C 25.1 °F /  -3.8 °C 30.21in /  1022.9hPa West 2.0mph /  3.2km/h 4.0mph /  6.4km/h 82% 0.00in /  0mm 35.00 W/m2
19:14 29.8 °F /  -1.2 °C 25.0 °F /  -3.9 °C 30.21in /  1022.9hPa West 2.0mph /  3.2km/h 3.0mph /  4.8km/h 82% 0.00in /  0mm 33.00 W/m2
19:19 29.7 °F /  -1.3 °C 24.9 °F /  -3.9 °C 30.21in /  1022.9hPa West 1.0mph /  1.6km/h 3.0mph /  4.8km/h 82% 0.00in /  0mm 30.00 W/m2
19:24 29.7 °F /  -1.3 °C 24.9 °F /  -3.9 °C 30.21in /  1022.9hPa West 2.0mph /  3.2km/h 3.0mph /  4.8km/h 82% 0.00in /  0mm 25.00 W/m2
19:29 29.7 °F /  -1.3 °C 25.2 °F /  -3.8 °C 30.21in /  1022.9hPa West 1.0mph /  1.6km/h 3.0mph /  4.8km/h 83% 0.00in /  0mm 19.00 W/m2
19:34 29.5 °F /  -1.4 °C 24.7 °F /  -4.1 °C 30.21in /  1022.9hPa SW 2.0mph /  3.2km/h 3.0mph /  4.8km/h 82% 0.00in /  0mm 16.00 W/m2
19:39 29.2 °F /  -1.6 °C 24.7 °F /  -4.1 °C 30.21in /  1022.9hPa Calm   3.0mph /  4.8km/h 83% 0.00in /  0mm 12.00 W/m2
19:44 29.1 °F /  -1.6 °C 24.6 °F /  -4.1 °C 30.21in /  1022.9hPa Calm   3.0mph /  4.8km/h 83% 0.00in /  0mm 9.00 W/m2
19:49 29.1 °F /  -1.6 °C 24.9 °F /  -3.9 °C 30.21in /  1022.9hPa Calm   1.0mph /  1.6km/h 84% 0.00in /  0mm 5.00 W/m2
19:54 28.9 °F /  -1.7 °C 24.4 °F /  -4.2 °C 30.21in /  1022.9hPa SSW 2.0mph /  3.2km/h 2.0mph /  3.2km/h 83% 0.00in /  0mm 0.00 W/m2
19:59 28.6 °F /  -1.9 °C 24.1 °F /  -4.4 °C 30.21in /  1022.9hPa SSW 2.0mph /  3.2km/h 2.0mph /  3.2km/h 83% 0.00in /  0mm 0.00 W/m2
20:04 28.3 °F /  -2.1 °C 24.1 °F /  -4.4 °C 30.21in /  1022.9hPa SSW 2.0mph /  3.2km/h 3.0mph /  4.8km/h 84% 0.00in /  0mm 0.00 W/m2
20:09 28.3 °F /  -2.1 °C 24.4 °F /  -4.2 °C 30.21in /  1022.9hPa South 2.0mph /  3.2km/h 3.0mph /  4.8km/h 85% 0.00in /  0mm 0.00 W/m2
20:14 28.4 °F /  -2 °C 24.5 °F /  -4.2 °C 30.21in /  1022.9hPa South 2.0mph /  3.2km/h 3.0mph /  4.8km/h 85% 0.00in /  0mm 0.00 W/m2
20:19 28.5 °F /  -1.9 °C 24.6 °F /  -4.1 °C 30.21in /  1022.9hPa South 2.0mph /  3.2km/h 4.0mph /  6.4km/h 85% 0.00in /  0mm 0.00 W/m2
20:24 28.5 °F /  -1.9 °C 24.6 °F /  -4.1 °C 30.21in /  1022.9hPa South 3.0mph /  4.8km/h 4.0mph /  6.4km/h 85% 0.00in /  0mm 0.00 W/m2
20:29 28.7 °F /  -1.8 °C 24.8 °F /  -4 °C 30.21in /  1022.9hPa South 3.0mph /  4.8km/h 4.0mph /  6.4km/h 85% 0.00in /  0mm 0.00 W/m2
20:34 28.8 °F /  -1.8 °C 24.9 °F /  -3.9 °C 30.21in /  1022.9hPa South 3.0mph /  4.8km/h 4.0mph /  6.4km/h 85% 0.00in /  0mm 0.00 W/m2
20:39 28.9 °F /  -1.7 °C 25.2 °F /  -3.8 °C 30.21in /  1022.9hPa South 2.0mph /  3.2km/h 4.0mph /  6.4km/h 86% 0.00in /  0mm 0.00 W/m2
20:44 29.0 °F /  -1.7 °C 25.3 °F /  -3.7 °C 30.21in /  1022.9hPa South 2.0mph /  3.2km/h 3.0mph /  4.8km/h 86% 0.00in /  0mm 0.00 W/m2
20:49 29.0 °F /  -1.7 °C 25.1 °F /  -3.8 °C 30.21in /  1022.9hPa South 3.0mph /  4.8km/h 3.0mph /  4.8km/h 85% 0.00in /  0mm 0.00 W/m2
20:54 29.0 °F /  -1.7 °C 25.1 °F /  -3.8 °C 30.21in /  1022.9hPa South 2.0mph /  3.2km/h 3.0mph /  4.8km/h 85% 0.00in /  0mm 0.00 W/m2
20:59 29.1 °F /  -1.6 °C 25.2 °F /  -3.8 °C 30.21in /  1022.9hPa South 1.0mph /  1.6km/h 3.0mph /  4.8km/h 85% 0.00in /  0mm 0.00 W/m2
21:04 29.0 °F /  -1.7 °C 25.1 °F /  -3.8 °C 30.21in /  1022.9hPa South 2.0mph /  3.2km/h 3.0mph /  4.8km/h 85% 0.00in /  0mm 0.00 W/m2
21:09 28.9 °F /  -1.7 °C 25.0 °F /  -3.9 °C 30.21in /  1022.9hPa South 3.0mph /  4.8km/h 3.0mph /  4.8km/h 85% 0.00in /  0mm 0.00 W/m2
21:14 28.9 °F /  -1.7 °C 25.0 °F /  -3.9 °C 30.21in /  1022.9hPa South 2.0mph /  3.2km/h 3.0mph /  4.8km/h 85% 0.00in /  0mm 0.00 W/m2
21:19 28.9 °F /  -1.7 °C 25.0 °F /  -3.9 °C 30.21in /  1022.9hPa South 1.0mph /  1.6km/h 3.0mph /  4.8km/h 85% 0.00in /  0mm 0.00 W/m2
21:24 28.9 °F /  -1.7 °C 25.0 °F /  -3.9 °C 30.21in /  1022.9hPa South 2.0mph /  3.2km/h 3.0mph /  4.8km/h 85% 0.00in /  0mm 0.00 W/m2
21:29 28.7 °F /  -1.8 °C 24.8 °F /  -4 °C 30.21in /  1022.9hPa South 2.0mph /  3.2km/h 3.0mph /  4.8km/h 85% 0.00in /  0mm 0.00 W/m2
21:34 28.6 °F /  -1.9 °C 24.7 °F /  -4.1 °C 30.21in /  1022.9hPa South 3.0mph /  4.8km/h 3.0mph /  4.8km/h 85% 0.00in /  0mm 0.00 W/m2
21:39 28.2 °F /  -2.1 °C 24.3 °F /  -4.3 °C 30.21in /  1022.9hPa East 3.0mph /  4.8km/h 5.0mph /  8km/h 85% 0.00in /  0mm 0.00 W/m2
21:44 27.9 °F /  -2.3 °C 24.0 °F /  -4.4 °C 30.21in /  1022.9hPa East 5.0mph /  8km/h 6.0mph /  9.7km/h 85% 0.00in /  0mm 0.00 W/m2
21:49 27.6 °F /  -2.4 °C 24.0 °F /  -4.4 °C 30.21in /  1022.9hPa East 5.0mph /  8km/h 6.0mph /  9.7km/h 86% 0.00in /  0mm 0.00 W/m2
21:54 27.4 °F /  -2.6 °C 23.8 °F /  -4.6 °C 30.21in /  1022.9hPa ESE 3.0mph /  4.8km/h 6.0mph /  9.7km/h 86% 0.00in /  0mm 0.00 W/m2
21:59 27.3 °F /  -2.6 °C 23.7 °F /  -4.6 °C 30.22in /  1023.2hPa ESE 4.0mph /  6.4km/h 6.0mph /  9.7km/h 86% 0.00in /  0mm 0.00 W/m2
22:04 27.2 °F /  -2.7 °C 23.8 °F /  -4.6 °C 30.21in /  1022.9hPa ESE 3.0mph /  4.8km/h 5.0mph /  8km/h 87% 0.00in /  0mm 0.00 W/m2
22:09 26.9 °F /  -2.8 °C 23.5 °F /  -4.7 °C 30.22in /  1023.2hPa ESE 2.0mph /  3.2km/h 5.0mph /  8km/h 87% 0.00in /  0mm 0.00 W/m2
22:14 26.7 °F /  -2.9 °C 23.4 °F /  -4.8 °C 30.22in /  1023.2hPa ESE 2.0mph /  3.2km/h 5.0mph /  8km/h 87% 0.00in /  0mm 0.00 W/m2
22:19 26.7 °F /  -2.9 °C 23.4 °F /  -4.8 °C 30.22in /  1023.2hPa ESE 4.0mph /  6.4km/h 4.0mph /  6.4km/h 87% 0.00in /  0mm 0.00 W/m2
22:24 26.7 °F /  -2.9 °C 23.6 °F /  -4.7 °C 30.22in /  1023.2hPa ESE 2.0mph /  3.2km/h 4.0mph /  6.4km/h 88% 0.00in /  0mm 0.00 W/m2
22:29 26.7 °F /  -2.9 °C 23.6 °F /  -4.7 °C 30.22in /  1023.2hPa ESE 3.0mph /  4.8km/h 4.0mph /  6.4km/h 88% 0.00in /  0mm 0.00 W/m2
22:34 26.7 °F /  -2.9 °C 23.6 °F /  -4.7 °C 30.22in /  1023.2hPa ESE 3.0mph /  4.8km/h 4.0mph /  6.4km/h 88% 0.00in /  0mm 0.00 W/m2
22:39 26.5 °F /  -3.1 °C 23.4 °F /  -4.8 °C 30.22in /  1023.2hPa ESE 5.0mph /  8km/h 5.0mph /  8km/h 88% 0.00in /  0mm 0.00 W/m2
22:44 26.3 °F /  -3.2 °C 23.2 °F /  -4.9 °C 30.22in /  1023.2hPa ESE 3.0mph /  4.8km/h 5.0mph /  8km/h 88% 0.00in /  0mm 0.00 W/m2
22:49 26.2 °F /  -3.2 °C 23.1 °F /  -4.9 °C 30.22in /  1023.2hPa ESE 3.0mph /  4.8km/h 5.0mph /  8km/h 88% 0.00in /  0mm 0.00 W/m2
22:54 26.2 °F /  -3.2 °C 23.1 °F /  -4.9 °C 30.22in /  1023.2hPa ESE 3.0mph /  4.8km/h 4.0mph /  6.4km/h 88% 0.00in /  0mm 0.00 W/m2
22:59 26.2 °F /  -3.2 °C 23.1 °F /  -4.9 °C 30.22in /  1023.2hPa ESE 3.0mph /  4.8km/h 4.0mph /  6.4km/h 88% 0.00in /  0mm 0.00 W/m2
23:04 26.1 °F /  -3.3 °C 23.0 °F /  -5 °C 30.22in /  1023.2hPa ESE 3.0mph /  4.8km/h 4.0mph /  6.4km/h 88% 0.00in /  0mm 0.00 W/m2
23:09 25.9 °F /  -3.4 °C 22.8 °F /  -5.1 °C 30.22in /  1023.2hPa ESE 3.0mph /  4.8km/h 4.0mph /  6.4km/h 88% 0.00in /  0mm 0.00 W/m2
23:14 25.8 °F /  -3.4 °C 22.7 °F /  -5.2 °C 30.22in /  1023.2hPa SE 3.0mph /  4.8km/h 4.0mph /  6.4km/h 88% 0.00in /  0mm 0.00 W/m2
23:19 25.8 °F /  -3.4 °C 23.0 °F /  -5 °C 30.22in /  1023.2hPa SE 3.0mph /  4.8km/h 4.0mph /  6.4km/h 89% 0.00in /  0mm 0.00 W/m2
23:24 25.8 °F /  -3.4 °C 23.0 °F /  -5 °C 30.22in /  1023.2hPa SE 4.0mph /  6.4km/h 4.0mph /  6.4km/h 89% 0.00in /  0mm 0.00 W/m2
23:29 25.9 °F /  -3.4 °C 23.1 °F /  -4.9 °C 30.22in /  1023.2hPa SE 3.0mph /  4.8km/h 4.0mph /  6.4km/h 89% 0.00in /  0mm 0.00 W/m2
23:34 26.0 °F /  -3.3 °C 23.2 °F /  -4.9 °C 30.22in /  1023.2hPa SE 3.0mph /  4.8km/h 4.0mph /  6.4km/h 89% 0.00in /  0mm 0.00 W/m2
23:39 26.1 °F /  -3.3 °C 23.3 °F /  -4.8 °C 30.22in /  1023.2hPa SE 2.0mph /  3.2km/h 4.0mph /  6.4km/h 89% 0.00in /  0mm 0.00 W/m2
23:44 26.0 °F /  -3.3 °C 22.9 °F /  -5.1 °C 30.22in /  1023.2hPa SE 2.0mph /  3.2km/h 4.0mph /  6.4km/h 88% 0.00in /  0mm 0.00 W/m2
23:49 25.9 °F /  -3.4 °C 22.8 °F /  -5.1 °C 30.22in /  1023.2hPa SE 3.0mph /  4.8km/h 3.0mph /  4.8km/h 88% 0.00in /  0mm 0.00 W/m2
23:54 25.8 °F /  -3.4 °C 22.7 °F /  -5.2 °C 30.21in /  1022.9hPa SE 4.0mph /  6.4km/h 4.0mph /  6.4km/h 88% 0.00in /  0mm 0.00 W/m2
23:59 25.9 °F /  -3.4 °C 23.1 °F /  -4.9 °C 30.22in /  1023.2hPa SE 3.0mph /  4.8km/h 4.0mph /  6.4km/h 89% 0.00in /  0mm 0.00 W/m2
Bismarck, North Dakota, USA
Compliments of Weather Underground - 4 mb